Time;durP1;ratioP1;P1;durP2;ratioP2;P2;SDS_P1;SDS_P2;PMS_P1;PMS_P2;Temp;Humidity;BMP_temperature;BMP_pressure;BME280_temperature;BME280_humidity;BME280_pressure;Samples;Min_cycle;Max_cycle;Signal;HPM_P1;HPM_P2
2021/12/13 00:01:56;;;;;;;69.30;35.97;;;9.80;99.90;;;;;;5071361;28;20702;-61
2021/12/13 00:04:26;;;;;;;60.83;34.65;;;9.80;99.90;;;;;;5078098;28;20526;-61
2021/12/13 00:07:01;;;;;;;61.38;35.05;;;9.70;99.90;;;;;;5074887;28;20036;-60
2021/12/13 00:09:30;;;;;;;66.93;35.70;;;9.70;99.90;;;;;;5079838;28;20029;-61
2021/12/13 00:12:01;;;;;;;68.95;35.47;;;9.70;99.90;;;;;;5082960;28;20468;-60
2021/12/13 00:14:33;;;;;;;62.90;34.92;;;9.60;99.90;;;;;;5079937;28;20304;-60
2021/12/13 00:17:09;;;;;;;71.50;35.88;;;9.70;99.90;;;;;;5076553;28;20169;-61
2021/12/13 00:19:39;;;;;;;68.18;35.15;;;9.60;99.90;;;;;;5079501;28;20252;-61
2021/12/13 00:22:13;;;;;;;65.68;34.13;;;9.60;99.90;;;;;;5072641;28;20028;-61
2021/12/13 00:24:41;;;;;;;66.03;35.47;;;9.60;99.90;;;;;;5071447;28;20482;-61
2021/12/13 00:27:16;;;;;;;68.53;35.50;;;9.60;99.90;;;;;;5080968;28;20542;-61
2021/12/13 00:29:55;;;;;;;62.17;35.28;;;9.60;99.90;;;;;;5081130;28;20674;-61
2021/12/13 00:32:33;;;;;;;67.10;36.20;;;9.60;99.90;;;;;;5082461;28;20490;-61
2021/12/13 00:35:05;;;;;;;64.55;35.45;;;9.70;99.90;;;;;;5079549;28;20029;-61
2021/12/13 00:37:37;;;;;;;70.75;36.17;;;9.70;99.90;;;;;;5081688;28;20029;-62
2021/12/13 00:40:07;;;;;;;59.28;33.17;;;9.70;99.90;;;;;;5074505;28;20731;-61
2021/12/13 00:42:40;;;;;;;66.88;33.50;;;9.70;99.90;;;;;;5083576;28;20077;-61
2021/12/13 00:45:09;;;;;;;64.38;34.72;;;9.60;99.90;;;;;;5075005;28;20036;-61
2021/12/13 00:47:37;;;;;;;65.53;33.42;;;9.60;99.90;;;;;;5084254;28;20583;-61
2021/12/13 00:50:34;;;;;;;54.83;31.83;;;9.70;99.90;;;;;;5084163;28;20122;-61
2021/12/13 00:53:00;;;;;;;59.97;31.00;;;9.70;99.90;;;;;;5077526;28;20063;-61
2021/12/13 00:55:30;;;;;;;59.80;30.83;;;9.60;99.90;;;;;;5078501;28;20375;-61
2021/12/13 00:58:07;;;;;;;51.60;30.25;;;9.60;99.90;;;;;;5083555;28;20024;-60
2021/12/13 01:00:45;;;;;;;57.50;29.85;;;9.60;99.90;;;;;;5084086;28;20526;-62
2021/12/13 01:03:16;;;;;;;49.15;28.98;;;9.50;99.90;;;;;;5080167;28;20111;-61
2021/12/13 01:06:00;;;;;;;51.25;28.92;;;9.60;99.90;;;;;;5078304;28;20450;-61
2021/12/13 01:08:47;;;;;;;53.75;30.33;;;9.70;99.90;;;;;;5082986;28;20092;-61
2021/12/13 01:11:36;;;;;;;47.60;28.25;;;9.70;99.90;;;;;;5077531;28;20039;-62
2021/12/13 01:14:37;;;;;;;50.13;29.10;;;9.70;99.90;;;;;;5082147;28;20039;-61
2021/12/13 01:17:35;;;;;;;47.55;27.42;;;9.70;99.90;;;;;;5082386;28;20127;-61
2021/12/13 01:20:25;;;;;;;50.03;27.67;;;9.60;99.90;;;;;;5079614;28;20085;-61
2021/12/13 01:23:02;;;;;;;44.47;25.77;;;9.60;99.90;;;;;;5082717;28;20142;-62
2021/12/13 01:25:46;;;;;;;45.30;27.17;;;9.50;99.90;;;;;;5083102;28;20039;-61
2021/12/13 01:28:33;;;;;;;42.22;25.35;;;9.60;99.90;;;;;;5083317;28;20028;-61
2021/12/13 01:31:03;;;;;;;49.08;26.85;;;9.60;99.90;;;;;;5070645;28;20145;-61
2021/12/13 01:33:31;;;;;;;46.75;25.08;;;9.70;99.90;;;;;;5083994;28;20114;-61
2021/12/13 01:36:01;;;;;;;43.50;25.50;;;9.60;99.90;;;;;;5081420;28;20762;-62
2021/12/13 01:38:34;;;;;;;47.28;26.33;;;9.60;99.90;;;;;;5073959;28;20028;-62
2021/12/13 01:41:10;;;;;;;43.80;25.08;;;9.60;99.90;;;;;;5080724;28;20290;-61
2021/12/13 01:43:39;;;;;;;42.90;25.58;;;9.60;99.90;;;;;;5083387;28;20032;-61
2021/12/13 01:46:05;;;;;;;47.00;24.75;;;9.60;99.90;;;;;;5076313;28;20364;-61
2021/12/13 01:48:36;;;;;;;44.65;24.95;;;9.60;99.90;;;;;;5083499;28;20039;-61
2021/12/13 01:51:11;;;;;;;40.67;23.90;;;9.50;99.90;;;;;;5083704;28;20554;-61
2021/12/13 01:53:45;;;;;;;41.63;23.75;;;9.60;99.90;;;;;;5072916;28;20028;-62
2021/12/13 01:56:43;;;;;;;40.95;24.30;;;9.50;99.90;;;;;;5081842;28;20187;-62
2021/12/13 02:02:20;;;;;;;38.10;22.90;;;9.70;99.90;;;;;;5078336;28;20565;-62
2021/12/13 02:05:14;;;;;;;44.70;24.85;;;9.70;99.90;;;;;;5084225;28;20503;-61
2021/12/13 02:07:55;;;;;;;;;;;9.60;99.90;;;;;;5079252;28;20254;-61
2021/12/13 02:10:27;;;;;;;41.25;23.30;;;9.50;99.90;;;;;;5080347;28;20223;-62
2021/12/13 02:12:58;;;;;;;39.83;23.83;;;9.40;99.90;;;;;;5074554;28;20387;-62
2021/12/13 02:18:16;;;;;;;43.38;23.23;;;9.50;99.90;;;;;;5082202;28;20395;-62
2021/12/13 02:20:46;;;;;;;41.33;24.67;;;9.50;99.90;;;;;;5081709;28;20662;-62
2021/12/13 02:23:13;;;;;;;36.70;22.67;;;9.50;99.90;;;;;;5073419;28;20762;-61
2021/12/13 02:25:47;;;;;;;37.75;22.08;;;9.50;99.90;;;;;;5075855;28;20688;-62
2021/12/13 02:28:23;;;;;;;36.08;20.83;;;9.50;99.90;;;;;;5082629;28;20055;-61
2021/12/13 02:31:00;;;;;;;39.38;21.52;;;9.50;99.90;;;;;;5072715;28;20495;-61
2021/12/13 02:34:02;;;;;;;34.83;20.52;;;9.60;99.90;;;;;;5081619;28;20084;-61
2021/12/13 02:36:41;;;;;;;35.60;21.35;;;9.60;99.90;;;;;;5079608;28;20051;-62
2021/12/13 02:39:11;;;;;;;31.88;19.45;;;9.50;99.90;;;;;;5077937;28;20105;-61
2021/12/13 02:41:38;;;;;;;31.45;20.02;;;9.50;99.90;;;;;;5077913;28;20028;-61
2021/12/13 02:44:10;;;;;;;31.45;19.83;;;9.40;99.90;;;;;;5081401;28;20540;-61
2021/12/13 02:46:37;;;;;;;29.42;19.45;;;9.50;99.90;;;;;;5082398;28;20471;-61
2021/12/13 02:49:07;;;;;;;31.90;19.20;;;9.60;99.90;;;;;;5086360;28;20119;-62
2021/12/13 02:51:46;;;;;;;27.65;18.92;;;9.70;99.90;;;;;;5086870;28;20039;-61
2021/12/13 02:54:25;;;;;;;32.33;19.35;;;9.50;99.90;;;;;;5084565;28;20640;-61
2021/12/13 02:56:56;;;;;;;31.00;19.05;;;9.50;99.90;;;;;;5077539;28;20590;-61
2021/12/13 02:59:26;;;;;;;30.45;18.27;;;9.50;99.90;;;;;;5076258;28;20044;-61
2021/12/13 03:01:51;;;;;;;28.17;17.80;;;9.50;99.90;;;;;;5084950;28;20043;-61
2021/12/13 03:04:20;;;;;;;31.25;18.98;;;9.60;99.90;;;;;;5085975;28;20406;-61
2021/12/13 03:06:58;;;;;;;26.30;17.48;;;9.70;99.90;;;;;;5068772;28;20525;-62
2021/12/13 03:09:28;;;;;;;29.95;17.38;;;9.60;99.90;;;;;;5086845;28;20060;-61
2021/12/13 03:11:55;;;;;;;27.75;18.27;;;9.60;99.90;;;;;;5081141;28;20127;-61
2021/12/13 03:14:28;;;;;;;26.05;16.95;;;9.50;99.90;;;;;;5083273;28;20101;-61
2021/12/13 03:17:18;;;;;;;26.33;18.00;;;9.50;99.90;;;;;;5077179;28;20047;-61
2021/12/13 03:20:01;;;;;;;27.65;18.40;;;9.50;99.90;;;;;;5080696;28;20374;-62
2021/12/13 03:23:05;;;;;;;25.63;16.80;;;9.60;99.90;;;;;;5099142;28;20035;-61
2021/12/13 03:25:52;;;;;;;27.95;17.40;;;9.60;99.90;;;;;;5085318;28;20104;-62
2021/12/13 03:28:48;;;;;;;27.92;17.55;;;9.60;99.90;;;;;;5079259;28;20044;-61
2021/12/13 03:31:23;;;;;;;25.48;16.08;;;9.50;99.90;;;;;;5095757;28;20155;-61
2021/12/13 03:33:51;;;;;;;28.50;17.52;;;9.50;99.90;;;;;;5086707;28;20032;-62
2021/12/13 03:36:43;;;;;;;27.33;16.83;;;9.50;99.90;;;;;;5078587;28;20513;-62
2021/12/13 03:39:12;;;;;;;25.92;16.10;;;9.60;99.90;;;;;;5074306;28;20120;-62
2021/12/13 03:41:42;;;;;;;25.38;16.58;;;9.60;99.90;;;;;;5085744;28;20032;-61
2021/12/13 03:44:17;;;;;;;24.83;15.73;;;9.60;99.90;;;;;;5080781;28;20086;-61
2021/12/13 03:46:46;;;;;;;22.42;15.02;;;9.60;99.90;;;;;;5081852;28;20181;-61
2021/12/13 03:49:12;;;;;;;22.13;14.40;;;9.50;99.90;;;;;;5078490;28;20082;-61
2021/12/13 03:51:41;;;;;;;22.10;15.85;;;9.50;99.90;;;;;;5065948;28;20224;-61
2021/12/13 03:54:10;;;;;;;25.48;13.90;;;9.50;99.90;;;;;;5075549;28;20356;-61
2021/12/13 03:56:40;;;;;;;20.85;14.02;;;9.30;99.90;;;;;;5078175;28;20399;-61
2021/12/13 03:59:10;;;;;;;22.63;14.95;;;9.30;99.90;;;;;;5078099;28;20372;-61
2021/12/13 04:01:42;;;;;;;20.80;13.90;;;9.40;99.90;;;;;;5082410;28;20443;-61
2021/12/13 04:04:39;;;;;;;22.75;14.55;;;9.40;99.90;;;;;;5073488;28;20134;-61
2021/12/13 04:07:12;;;;;;;20.85;14.00;;;9.60;99.90;;;;;;5065273;28;20487;-62
2021/12/13 04:09:38;;;;;;;23.20;13.85;;;9.50;99.90;;;;;;5077471;28;20093;-61
2021/12/13 04:12:07;;;;;;;22.58;13.52;;;9.40;99.90;;;;;;5084032;28;20074;-61
2021/12/13 04:14:39;;;;;;;24.60;15.15;;;9.40;99.90;;;;;;5075894;28;20415;-61
2021/12/13 04:18:29;;;;;;;21.13;14.35;;;9.30;99.90;;;;;;5081756;28;20471;-61
2021/12/13 04:20:35;;;;;;;19.35;13.23;;;9.40;99.90;;;;;;5072131;28;20101;-61
2021/12/13 04:23:15;;;;;;;21.48;14.45;;;9.40;99.90;;;;;;5079156;28;20085;-61
2021/12/13 04:25:44;;;;;;;21.92;14.05;;;9.50;99.90;;;;;;5082437;28;20024;-62
2021/12/13 04:28:41;;;;;;;22.05;14.15;;;9.50;99.90;;;;;;5083314;28;20043;-61
2021/12/13 04:31:11;;;;;;;26.55;14.73;;;9.50;99.90;;;;;;5076813;28;20044;-60
2021/12/13 04:33:48;;;;;;;22.95;15.13;;;9.50;99.90;;;;;;5083037;28;20104;-61
2021/12/13 04:36:40;;;;;;;22.15;14.00;;;9.50;99.90;;;;;;5083223;28;20028;-61
2021/12/13 04:39:17;;;;;;;23.60;14.05;;;9.40;99.90;;;;;;5080061;28;20029;-61
2021/12/13 04:41:49;;;;;;;20.83;14.48;;;9.50;99.90;;;;;;5082660;28;20494;-61
2021/12/13 04:44:32;;;;;;;20.13;13.82;;;9.40;99.90;;;;;;5084087;28;20028;-61
2021/12/13 04:47:09;;;;;;;20.80;13.75;;;9.30;99.90;;;;;;5069812;28;20064;-61
2021/12/13 04:49:37;;;;;;;25.13;13.57;;;9.30;99.90;;;;;;5081399;28;20090;-61
2021/12/13 04:52:14;;;;;;;21.17;13.68;;;9.20;99.90;;;;;;5077649;28;20463;-61
2021/12/13 04:54:45;;;;;;;20.67;13.13;;;9.40;99.90;;;;;;5080705;28;20028;-62
2021/12/13 04:57:11;;;;;;;18.38;12.35;;;9.30;99.90;;;;;;5074024;28;20528;-61
2021/12/13 04:59:37;;;;;;;18.67;12.40;;;9.30;99.90;;;;;;5083009;28;20032;-61
2021/12/13 05:02:07;;;;;;;21.33;12.82;;;9.30;99.90;;;;;;5079535;28;20036;-61
2021/12/13 05:04:34;;;;;;;16.80;11.68;;;9.20;99.90;;;;;;5073046;28;20036;-61
2021/12/13 05:07:03;;;;;;;18.08;12.15;;;9.20;99.90;;;;;;5078841;28;20036;-62
2021/12/13 05:09:30;;;;;;;17.58;12.02;;;9.20;99.90;;;;;;5082155;28;20093;-61
2021/12/13 05:12:01;;;;;;;20.02;12.77;;;9.20;99.90;;;;;;5080307;28;20398;-61
2021/12/13 05:14:32;;;;;;;18.20;12.30;;;9.20;99.90;;;;;;5076439;28;20928;-61
2021/12/13 05:17:05;;;;;;;18.67;11.25;;;9.20;99.90;;;;;;5081033;28;20042;-61
2021/12/13 05:19:37;;;;;;;15.77;11.77;;;9.20;99.90;;;;;;5078618;28;20506;-61
2021/12/13 05:22:06;;;;;;;14.73;10.20;;;9.30;99.90;;;;;;5081730;28;20495;-62
2021/12/13 05:24:34;;;;;;;18.33;11.98;;;9.20;99.90;;;;;;5082537;28;20544;-61
2021/12/13 05:27:07;;;;;;;19.50;12.10;;;9.40;99.90;;;;;;5077374;28;20036;-61
2021/12/13 05:30:08;;;;;;;21.80;12.35;;;9.40;99.90;;;;;;5076048;28;20043;-61
2021/12/13 05:32:38;;;;;;;17.83;11.77;;;9.40;99.90;;;;;;5085249;28;20028;-61
2021/12/13 05:35:14;;;;;;;19.75;12.50;;;9.50;99.90;;;;;;5081401;28;20059;-61
2021/12/13 05:37:43;;;;;;;18.88;12.98;;;9.50;99.90;;;;;;5078158;28;20044;-62
2021/12/13 05:40:14;;;;;;;17.67;12.30;;;9.50;99.90;;;;;;5074430;28;20136;-61
2021/12/13 05:42:48;;;;;;;18.58;11.80;;;9.40;99.90;;;;;;5079928;28;20547;-61
2021/12/13 05:45:16;;;;;;;;;;;9.30;99.90;;;;;;5078227;28;20032;-61
2021/12/13 05:48:12;;;;;;;20.45;11.73;;;9.40;99.90;;;;;;5082903;28;20396;-61
2021/12/13 05:50:44;;;;;;;17.02;11.15;;;9.50;99.90;;;;;;5077929;28;20044;-61
2021/12/13 05:53:19;;;;;;;16.80;11.98;;;9.40;99.90;;;;;;5078326;28;20065;-62
2021/12/13 05:56:13;;;;;;;16.10;11.15;;;9.40;99.90;;;;;;5075230;28;20120;-61
2021/12/13 05:58:53;;;;;;;19.33;11.52;;;9.20;99.90;;;;;;5079722;28;20460;-61
2021/12/13 06:01:27;;;;;;;14.23;11.00;;;9.40;99.90;;;;;;5079915;28;20058;-61
2021/12/13 06:04:07;;;;;;;17.08;10.65;;;9.20;99.90;;;;;;5085938;28;20131;-61
2021/12/13 06:06:42;;;;;;;17.25;11.77;;;9.20;99.90;;;;;;5076239;28;20036;-61
2021/12/13 06:09:08;;;;;;;17.38;11.43;;;9.40;99.90;;;;;;5081205;28;20085;-61
2021/12/13 06:11:38;;;;;;;16.55;12.00;;;9.50;99.90;;;;;;5082201;28;20036;-61
2021/12/13 06:14:15;;;;;;;17.77;11.68;;;9.60;99.90;;;;;;5080700;28;20119;-61
2021/12/13 06:17:06;;;;;;;17.02;11.50;;;9.40;99.90;;;;;;5077994;28;20048;-62
2021/12/13 06:19:37;;;;;;;16.40;10.45;;;9.40;99.90;;;;;;5064391;28;20029;-62
2021/12/13 06:22:08;;;;;;;16.40;10.75;;;9.40;99.90;;;;;;5069267;28;20044;-61
2021/12/13 06:24:39;;;;;;;14.93;9.82;;;9.40;99.90;;;;;;5080940;28;20661;-62
2021/12/13 06:27:12;;;;;;;15.35;10.02;;;9.40;99.90;;;;;;5078504;28;20055;-61
2021/12/13 06:30:05;;;;;;;13.93;10.02;;;9.40;99.90;;;;;;5087126;28;20466;-61
2021/12/13 06:32:57;;;;;;;15.15;10.27;;;9.40;99.90;;;;;;5080370;28;20045;-61
2021/12/13 06:36:02;;;;;;;15.40;9.93;;;9.40;99.90;;;;;;5075066;28;20050;-61
2021/12/13 06:38:40;;;;;;;15.57;10.05;;;9.30;99.90;;;;;;5076709;28;20453;-60
2021/12/13 06:41:28;;;;;;;13.30;9.45;;;9.20;99.90;;;;;;5080189;28;20046;-60
2021/12/13 06:44:03;;;;;;;15.23;9.88;;;9.10;99.90;;;;;;5086592;28;20028;-61
2021/12/13 06:46:39;;;;;;;16.63;10.05;;;9.20;99.90;;;;;;5084340;28;20441;-61
2021/12/13 06:49:04;;;;;;;13.20;9.43;;;9.30;99.90;;;;;;5085679;28;20111;-61
2021/12/13 06:51:44;;;;;;;15.32;9.82;;;9.30;99.90;;;;;;5086384;28;20123;-60
2021/12/13 06:54:26;;;;;;;16.83;9.82;;;9.20;99.90;;;;;;5084651;28;20071;-61
2021/12/13 06:56:59;;;;;;;13.30;9.65;;;9.20;99.90;;;;;;5068353;28;20048;-61
2021/12/13 06:59:26;;;;;;;88.97;64.85;;;9.20;99.90;;;;;;5082043;28;20449;-61
2021/12/13 07:02:12;;;;;;;16.73;12.45;;;9.20;99.90;;;;;;5081352;28;20094;-61
2021/12/13 07:05:17;;;;;;;14.55;10.10;;;9.20;99.90;;;;;;5083441;28;20123;-61
2021/12/13 07:08:00;;;;;;;14.90;9.70;;;9.30;99.90;;;;;;5064735;28;20115;-61
2021/12/13 07:10:39;;;;;;;14.90;10.35;;;9.30;99.90;;;;;;5082215;28;20040;-61
2021/12/13 07:13:31;;;;;;;15.68;10.20;;;9.30;99.90;;;;;;5080114;28;20085;-60
2021/12/13 07:16:02;;;;;;;15.27;10.35;;;9.30;99.90;;;;;;5080074;28;20678;-60
2021/12/13 07:19:02;;;;;;;15.38;9.52;;;9.20;99.90;;;;;;5085600;28;20028;-61
2021/12/13 07:21:35;;;;;;;16.48;10.32;;;9.30;99.90;;;;;;5079355;28;20033;-61
2021/12/13 07:24:09;;;;;;;12.57;7.60;;;9.20;99.90;;;;;;5079135;28;20115;-60
2021/12/13 07:27:05;;;;;;;17.02;10.45;;;9.20;99.90;;;;;;5075777;28;20028;-61
2021/12/13 07:29:58;;;;;;;14.35;9.60;;;9.30;99.90;;;;;;5083055;28;20028;-62
2021/12/13 07:32:28;;;;;;;9.63;7.13;;;9.40;99.90;;;;;;5077232;28;20036;-61
2021/12/13 07:35:09;;;;;;;12.57;9.25;;;9.40;99.90;;;;;;5080876;28;20499;-61
2021/12/13 07:37:59;;;;;;;11.55;8.50;;;9.20;99.90;;;;;;5076250;28;20089;-61
2021/12/13 07:40:30;;;;;;;12.05;8.10;;;9.20;99.90;;;;;;5079576;28;20139;-61
2021/12/13 07:43:18;;;;;;;12.73;8.70;;;9.10;99.90;;;;;;5081284;28;20060;-61
2021/12/13 07:45:58;;;;;;;12.02;7.72;;;9.20;99.90;;;;;;5080055;28;20475;-62
2021/12/13 07:48:25;;;;;;;13.45;8.15;;;9.20;99.90;;;;;;5073142;28;20033;-63
2021/12/13 07:51:18;;;;;;;13.55;8.27;;;9.30;99.90;;;;;;5076763;28;20112;-62
2021/12/13 07:54:02;;;;;;;12.27;8.52;;;9.20;99.90;;;;;;5080131;28;20051;-62
2021/12/13 07:56:36;;;;;;;12.63;7.85;;;9.20;99.90;;;;;;5082967;28;20051;-62
2021/12/13 07:59:04;;;;;;;13.50;8.18;;;9.30;99.90;;;;;;5078889;28;20055;-61
2021/12/13 08:01:34;;;;;;;9.68;7.07;;;9.40;99.90;;;;;;5094186;28;20056;-62
2021/12/13 08:04:22;;;;;;;12.10;7.65;;;9.30;99.90;;;;;;5072889;28;20050;-62
2021/12/13 08:07:15;;;;;;;9.77;7.38;;;9.30;99.90;;;;;;5078836;28;20538;-62
2021/12/13 08:10:05;;;;;;;10.82;7.95;;;9.40;99.90;;;;;;5080233;28;20051;-62
2021/12/13 08:12:41;;;;;;;10.88;7.50;;;9.30;99.90;;;;;;5079722;28;20047;-62
2021/12/13 08:15:15;;;;;;;11.32;7.18;;;9.40;99.90;;;;;;5095135;28;20104;-62
2021/12/13 08:17:57;;;;;;;12.63;6.57;;;9.30;99.90;;;;;;5080334;28;20182;-63
2021/12/13 08:20:31;;;;;;;9.52;7.13;;;9.40;99.90;;;;;;5073142;28;20044;-61
2021/12/13 08:22:57;;;;;;;;;;;9.40;99.90;;;;;;5081446;28;20085;-62
2021/12/13 08:25:31;;;;;;;9.18;7.30;;;9.40;99.90;;;;;;5081692;28;20270;-61
2021/12/13 08:28:12;;;;;;;9.40;7.53;;;9.40;99.90;;;;;;5079769;28;20124;-62
2021/12/13 08:30:56;;;;;;;9.38;6.68;;;9.40;99.90;;;;;;5081776;28;21013;-63
2021/12/13 08:33:41;;;;;;;9.65;6.55;;;9.50;99.90;;;;;;5079315;28;20124;-62
2021/12/13 08:36:17;;;;;;;10.27;7.68;;;9.50;99.90;;;;;;5079452;28;20418;-63
2021/12/13 08:38:45;;;;;;;13.48;7.15;;;9.40;99.90;;;;;;5076662;28;20145;-63
2021/12/13 08:41:23;;;;;;;11.48;7.68;;;9.40;99.90;;;;;;5071975;28;20522;-62
2021/12/13 08:43:54;;;;;;;10.00;6.90;;;9.40;99.90;;;;;;5077122;28;20596;-62
2021/12/13 08:46:39;;;;;;;11.77;6.95;;;9.40;99.90;;;;;;5077697;28;20028;-62
2021/12/13 08:49:31;;;;;;;8.13;6.68;;;9.40;99.90;;;;;;5079200;28;20094;-62
2021/12/13 08:52:06;;;;;;;152.30;117.63;;;9.40;99.90;;;;;;5076761;28;20087;-60
2021/12/13 08:54:43;;;;;;;17.40;10.77;;;9.50;99.90;;;;;;5075258;28;20032;-62
2021/12/13 08:57:25;;;;;;;8.73;6.70;;;9.50;99.90;;;;;;5082356;28;20020;-61
2021/12/13 08:59:53;;;;;;;9.38;6.50;;;9.40;99.90;;;;;;5085860;28;20415;-62
2021/12/13 09:02:19;;;;;;;9.57;6.70;;;9.50;99.90;;;;;;5079695;28;20086;-61
2021/12/13 09:05:17;;;;;;;9.70;6.40;;;9.50;99.90;;;;;;5081371;28;20028;-62
2021/12/13 09:07:59;;;;;;;9.85;6.20;;;9.40;99.90;;;;;;5060801;28;20032;-62
2021/12/13 09:10:44;;;;;;;8.20;5.68;;;9.40;99.90;;;;;;5077855;28;20055;-62
2021/12/13 09:13:11;;;;;;;9.35;6.25;;;9.50;99.90;;;;;;5080526;28;20517;-62
2021/12/13 09:15:38;;;;;;;9.95;6.78;;;9.60;99.90;;;;;;5072737;28;21680;-62
2021/12/13 09:18:07;;;;;;;9.50;6.53;;;9.50;99.90;;;;;;5093894;28;20021;-62
2021/12/13 09:20:46;;;;;;;11.90;7.07;;;9.50;99.90;;;;;;5081196;28;20390;-62
2021/12/13 09:23:19;;;;;;;10.10;6.60;;;9.50;99.90;;;;;;5080755;28;20540;-62
2021/12/13 09:25:53;;;;;;;8.90;6.47;;;9.60;99.90;;;;;;5077392;28;20086;-62
2021/12/13 09:28:26;;;;;;;11.93;6.85;;;9.70;99.90;;;;;;5075312;28;20375;-62
2021/12/13 09:30:56;;;;;;;;;;;9.80;99.90;;;;;;5075275;28;20554;-63
2021/12/13 09:33:28;;;;;;;9.82;6.38;;;9.70;99.90;;;;;;5082034;28;21795;-62
2021/12/13 09:36:10;;;;;;;10.63;6.93;;;9.70;99.90;;;;;;5078834;28;20586;-61
2021/12/13 09:38:58;;;;;;;12.43;6.70;;;9.60;99.90;;;;;;5078323;28;20032;-61
2021/12/13 09:41:44;;;;;;;10.23;6.93;;;9.50;99.90;;;;;;5080253;28;20077;-62
2021/12/13 09:44:09;;;;;;;18.65;7.68;;;9.60;99.90;;;;;;5070102;28;20025;-62
2021/12/13 09:46:51;;;;;;;10.85;6.72;;;9.50;99.90;;;;;;5077777;28;20595;-62
2021/12/13 09:49:42;;;;;;;10.48;7.00;;;9.60;99.90;;;;;;5094009;28;20032;-62
2021/12/13 09:52:29;;;;;;;9.25;6.60;;;9.70;99.90;;;;;;5079442;28;20044;-62
2021/12/13 09:55:00;;;;;;;10.50;6.97;;;9.70;99.90;;;;;;5069824;28;20494;-62
2021/12/13 09:57:42;;;;;;;11.32;6.80;;;9.70;99.90;;;;;;5072606;28;20097;-62
2021/12/13 10:00:18;;;;;;;9.35;7.03;;;9.80;99.90;;;;;;5078047;28;20028;-62
2021/12/13 10:02:48;;;;;;;273.42;200.65;;;9.80;99.90;;;;;;5077429;28;20059;-62
2021/12/13 10:05:23;;;;;;;15.38;10.80;;;9.70;99.90;;;;;;5074912;28;20475;-62
2021/12/13 10:07:54;;;;;;;11.13;7.93;;;9.80;99.90;;;;;;5076929;28;20021;-62
2021/12/13 10:10:32;;;;;;;11.00;7.38;;;9.90;99.90;;;;;;5070546;28;20555;-62
2021/12/13 10:13:05;;;;;;;10.60;7.40;;;9.70;99.90;;;;;;5070182;28;20047;-62
2021/12/13 10:15:42;;;;;;;10.15;7.72;;;9.80;99.90;;;;;;5078274;28;20025;-62
2021/12/13 10:18:13;;;;;;;12.65;7.63;;;9.90;99.90;;;;;;5077623;28;20044;-62
2021/12/13 10:20:44;;;;;;;11.35;7.72;;;9.90;99.90;;;;;;5080505;28;20486;-63
2021/12/13 10:23:14;;;;;;;9.98;7.28;;;9.80;99.90;;;;;;5079685;28;20509;-62
2021/12/13 10:25:45;;;;;;;10.48;7.00;;;10.00;99.90;;;;;;5079517;28;20777;-62
2021/12/13 10:28:17;;;;;;;10.07;7.00;;;9.90;99.90;;;;;;5077297;28;20127;-61
2021/12/13 10:30:58;;;;;;;9.48;7.25;;;9.90;99.90;;;;;;5076660;28;20509;-63
2021/12/13 10:33:25;;;;;;;7.85;6.70;;;9.90;99.90;;;;;;5074954;28;20063;-63
2021/12/13 10:35:53;;;;;;;9.57;7.10;;;9.90;99.90;;;;;;5079755;28;20028;-62
2021/12/13 10:38:33;;;;;;;9.45;7.32;;;9.90;99.90;;;;;;5080599;28;20101;-62
2021/12/13 10:41:04;;;;;;;10.27;6.63;;;10.00;99.90;;;;;;5078196;28;20061;-63
2021/12/13 10:43:39;;;;;;;8.43;6.45;;;10.00;99.90;;;;;;5076754;28;20119;-63
2021/12/13 10:46:11;;;;;;;9.18;6.55;;;10.00;99.90;;;;;;5077185;28;20040;-62
2021/12/13 10:48:44;;;;;;;8.90;5.90;;;9.90;99.90;;;;;;5079589;28;20036;-61
2021/12/13 10:51:17;;;;;;;9.05;6.50;;;9.90;99.90;;;;;;5080287;28;20487;-61
2021/12/13 10:53:46;;;;;;;5.72;4.07;;;9.90;99.90;;;;;;5070665;28;20043;-62
2021/12/13 10:56:19;;;;;;;8.02;6.32;;;9.90;99.90;;;;;;5069934;28;20024;-62
2021/12/13 10:58:50;;;;;;;9.80;5.65;;;9.90;99.90;;;;;;5060683;28;20032;-62
2021/12/13 11:01:25;;;;;;;7.13;5.38;;;9.90;99.90;;;;;;5070488;28;20040;-61
2021/12/13 11:03:54;;;;;;;8.93;5.70;;;9.90;99.90;;;;;;5075788;28;20339;-61
2021/12/13 11:06:22;;;;;;;10.38;6.00;;;9.90;99.90;;;;;;5076718;28;20028;-62
2021/12/13 11:08:49;;;;;;;8.18;5.65;;;10.00;99.90;;;;;;5081242;28;20028;-61
2021/12/13 11:11:31;;;;;;;9.57;5.70;;;10.00;99.90;;;;;;5084086;28;20123;-62
2021/12/13 11:14:02;;;;;;;6.25;5.40;;;10.10;99.90;;;;;;5078849;28;20534;-62
2021/12/13 11:16:35;;;;;;;11.60;5.10;;;10.10;99.90;;;;;;5079807;28;20833;-62
2021/12/13 11:19:03;;;;;;;12.93;6.65;;;10.00;99.90;;;;;;5076583;28;20612;-62
2021/12/13 11:21:35;;;;;;;6.90;5.35;;;10.00;99.90;;;;;;5080944;28;20506;-62
2021/12/13 11:24:04;;;;;;;6.15;4.88;;;10.00;99.90;;;;;;5082709;28;20028;-61
2021/12/13 11:26:35;;;;;;;6.78;4.25;;;10.00;99.90;;;;;;5073929;28;20036;-62
2021/12/13 11:29:03;;;;;;;5.90;4.25;;;10.00;99.90;;;;;;5080526;28;20037;-61
2021/12/13 11:31:28;;;;;;;5.40;4.25;;;10.00;99.90;;;;;;5081592;28;20035;-62
2021/12/13 11:34:03;;;;;;;6.10;4.35;;;10.10;99.90;;;;;;5083311;28;20123;-62
2021/12/13 11:36:48;;;;;;;6.68;4.30;;;10.10;99.90;;;;;;5078908;28;20402;-61
2021/12/13 11:39:32;;;;;;;5.22;3.83;;;10.20;99.90;;;;;;5077229;28;20113;-62
2021/12/13 11:42:34;;;;;;;4.88;3.85;;;10.10;99.90;;;;;;5083416;28;20036;-61
2021/12/13 11:45:06;;;;;;;4.15;3.50;;;10.10;99.90;;;;;;5083186;28;20039;-61
2021/12/13 11:47:40;;;;;;;4.90;3.50;;;10.10;99.90;;;;;;5082583;28;20035;-62
2021/12/13 11:50:40;;;;;;;4.80;3.05;;;10.10;99.90;;;;;;5081135;28;20129;-61
2021/12/13 11:53:12;;;;;;;3.72;2.97;;;10.10;99.90;;;;;;5078424;28;20028;-61
2021/12/13 11:56:04;;;;;;;6.93;2.80;;;10.10;99.90;;;;;;5080614;28;20032;-62
2021/12/13 11:59:07;;;;;;;5.43;2.60;;;10.10;99.90;;;;;;5081142;28;20032;-62
2021/12/13 12:02:01;;;;;;;2.87;2.40;;;10.20;99.90;;;;;;5082429;28;20035;-61
2021/12/13 12:05:05;;;;;;;4.85;2.30;;;10.20;99.90;;;;;;5081419;28;20390;-61
2021/12/13 12:08:28;;;;;;;3.90;2.35;;;10.20;99.90;;;;;;5077347;28;20403;-62
2021/12/13 12:11:23;;;;;;;2.90;1.90;;;10.20;99.90;;;;;;5055878;28;20036;-62
2021/12/13 12:14:05;;;;;;;2.10;1.70;;;10.20;99.90;;;;;;5056512;28;20108;-62
2021/12/13 12:16:52;;;;;;;2.40;1.75;;;10.10;99.90;;;;;;5074017;28;20039;-61
2021/12/13 12:19:30;;;;;;;3.50;2.03;;;10.10;99.90;;;;;;5078140;28;20032;-61
2021/12/13 12:21:59;;;;;;;3.47;2.20;;;10.10;99.90;;;;;;5078585;28;20033;-62
2021/12/13 12:24:30;;;;;;;3.25;2.22;;;10.20;99.90;;;;;;5077137;28;20523;-61
2021/12/13 12:27:12;;;;;;;2.92;1.60;;;10.10;99.90;;;;;;5084687;28;20028;-62
2021/12/13 12:29:53;;;;;;;3.25;2.20;;;10.20;99.90;;;;;;5081721;28;20036;-61
2021/12/13 12:32:23;;;;;;;2.17;1.80;;;10.30;99.90;;;;;;5075812;28;20139;-62
2021/12/13 12:35:01;;;;;;;5.47;2.33;;;10.20;99.90;;;;;;5077492;28;20043;-61
2021/12/13 12:37:33;;;;;;;3.13;2.33;;;10.30;99.90;;;;;;5080483;28;20036;-62
2021/12/13 12:40:22;;;;;;;3.20;2.00;;;10.30;99.90;;;;;;5079724;28;20055;-61
2021/12/13 12:42:52;;;;;;;4.15;2.10;;;10.20;99.90;;;;;;5076475;28;20491;-62
2021/12/13 12:45:47;;;;;;;3.63;2.47;;;10.20;99.90;;;;;;5078897;28;20048;-62
2021/12/13 12:48:15;;;;;;;3.33;2.03;;;10.20;99.90;;;;;;5083408;28;20491;-62
2021/12/13 12:51:00;;;;;;;4.82;2.20;;;10.20;99.90;;;;;;5076425;28;20039;-62
2021/12/13 12:53:31;;;;;;;2.63;2.10;;;10.30;99.90;;;;;;5088558;28;20028;-61
2021/12/13 12:56:02;;;;;;;2.45;1.65;;;10.30;99.90;;;;;;5071230;28;20124;-61
2021/12/13 12:58:33;;;;;;;4.78;1.90;;;10.20;99.90;;;;;;5081850;28;20028;-62
2021/12/13 13:01:03;;;;;;;3.50;1.42;;;10.20;99.90;;;;;;5076527;28;20036;-61
2021/12/13 13:03:34;;;;;;;1.90;1.30;;;10.30;99.90;;;;;;5077749;28;20040;-62
2021/12/13 13:06:17;;;;;;;2.03;1.08;;;10.30;99.90;;;;;;5083876;28;20036;-62
2021/12/13 13:08:47;;;;;;;1.17;0.85;;;10.20;99.90;;;;;;5082118;28;20437;-62
2021/12/13 13:11:30;;;;;;;0.90;0.70;;;10.20;99.90;;;;;;5081619;28;20126;-62
2021/12/13 13:14:27;;;;;;;1.50;0.68;;;10.30;99.90;;;;;;5072900;28;20036;-62
2021/12/13 13:17:13;;;;;;;1.00;0.70;;;10.30;99.90;;;;;;5078564;28;20111;-62
2021/12/13 13:19:43;;;;;;;1.88;0.60;;;10.20;99.90;;;;;;5082311;28;20035;-62
2021/12/13 13:22:32;;;;;;;1.17;0.85;;;10.20;99.90;;;;;;5069972;28;20066;-62
2021/12/13 13:25:03;;;;;;;1.60;0.70;;;10.20;99.90;;;;;;5080635;28;20714;-62
2021/12/13 13:27:30;;;;;;;1.13;0.63;;;10.20;99.90;;;;;;5076798;28;20085;-61
2021/12/13 13:29:57;;;;;;;0.73;0.60;;;10.20;99.90;;;;;;5080977;28;20036;-62
2021/12/13 13:32:23;;;;;;;1.33;0.60;;;10.10;99.90;;;;;;5077794;28;20652;-62
2021/12/13 13:34:53;;;;;;;2.22;0.70;;;10.20;99.90;;;;;;5081612;28;21759;-62
2021/12/13 13:37:23;;;;;;;4.05;0.60;;;10.10;99.90;;;;;;5081936;28;20040;-62
2021/12/13 13:40:01;;;;;;;0.85;0.70;;;10.10;99.90;;;;;;5077549;28;20044;-62